Time;durP1;ratioP1;P1;durP2;ratioP2;P2;SDS_P1;SDS_P2;PMS_P1;PMS_P2;Temp;Humidity;BMP_temperature;BMP_pressure;BME280_temperature;BME280_humidity;BME280_pressure;Samples;Min_cycle;Max_cycle;Signal;HPM_P1;HPM_P2
2023/09/11 00:02:07;;;;;;;10.47;9.57;;;;;;;;;;5082956;28;20453;-89
2023/09/11 00:04:34;;;;;;;11.13;10.10;;;;;;;;;;5081739;28;20444;-90
2023/09/11 00:07:02;;;;;;;10.17;9.17;;;;;;;;;;5088194;28;20472;-89
2023/09/11 00:09:29;;;;;;;11.27;10.17;;;;;;;;;;5082767;28;20521;-88
2023/09/11 00:11:56;;;;;;;11.17;10.00;;;;;;;;;;5083709;28;20445;-89
2023/09/11 00:14:24;;;;;;;10.00;9.20;;;;;;;;;;5092315;28;20490;-91
2023/09/11 00:16:51;;;;;;;12.00;10.90;;;;;;;;;;5098989;27;20460;-89
2023/09/11 00:19:20;;;;;;;11.50;10.30;;;;;;;;;;5098467;28;20475;-91
2023/09/11 00:21:47;;;;;;;10.73;9.70;;;;;;;;;;5097978;28;20455;-90
2023/09/11 00:24:14;;;;;;;12.13;11.03;;;;;;;;;;5088435;28;20441;-89
2023/09/11 00:26:42;;;;;;;10.97;9.90;;;;;;;;;;5092387;28;20461;-90
2023/09/11 00:29:09;;;;;;;10.60;9.50;;;;;;;;;;5092030;28;20506;-89
2023/09/11 00:31:36;;;;;;;11.60;10.40;;;;;;;;;;5089504;28;20444;-89
2023/09/11 00:34:04;;;;;;;11.00;9.90;;;;;;;;;;5087528;28;20486;-90
2023/09/11 00:36:32;;;;;;;10.40;8.47;;;;;;;;;;5090689;28;20616;-91
2023/09/11 00:39:00;;;;;;;10.23;9.33;;;;;;;;;;5099115;28;20478;-90
2023/09/11 00:41:27;;;;;;;10.97;9.87;;;;;;;;;;5099862;28;20454;-91
2023/09/11 00:43:55;;;;;;;11.33;10.23;;;;;;;;;;5099702;28;20453;-91
2023/09/11 00:46:22;;;;;;;11.97;10.77;;;;;;;;;;5097390;28;20460;-90
2023/09/11 00:48:53;;;;;;;10.57;9.63;;;;;;;;;;5097883;28;20467;-92
2023/09/11 00:51:20;;;;;;;10.10;9.00;;;;;;;;;;5097251;28;20487;-90
2023/09/11 00:53:49;;;;;;;10.80;9.80;;;;;;;;;;5089952;28;20836;-91
2023/09/11 00:56:17;;;;;;;9.93;8.90;;;;;;;;;;5096706;28;20468;-89
2023/09/11 00:58:44;;;;;;;10.70;9.80;;;;;;;;;;5096013;28;20466;-90
2023/09/11 01:01:12;;;;;;;10.60;9.60;;;;;;;;;;5096881;28;20479;-91
2023/09/11 01:03:39;;;;;;;10.00;9.00;;;;;;;;;;5094839;28;20498;-89
2023/09/11 01:06:07;;;;;;;10.93;9.93;;;;;;;;;;5095924;28;20482;-91
2023/09/11 01:08:35;;;;;;;10.67;9.60;;;;;;;;;;5097718;28;20467;-92
2023/09/11 01:11:03;;;;;;;10.00;9.03;;;;;;;;;;5096923;28;20445;-92
2023/09/11 01:13:31;;;;;;;10.50;9.33;;;;;;;;;;5094574;28;20526;-91
2023/09/11 01:16:02;;;;;;;9.63;8.73;;;;;;;;;;5095382;28;20424;-88
2023/09/11 01:18:33;;;;;;;10.20;9.30;;;;;;;;;;5091504;28;20425;-90
2023/09/11 01:23:50;;;;;;;10.33;9.23;;;;;;;;;;5031972;28;20462;-56
2023/09/11 01:26:35;;;;;;;10.77;9.80;;;;;;;;;;5025643;28;20462;-56
2023/09/11 01:29:11;;;;;;;10.60;9.63;;;;;;;;;;5021558;28;20453;-55
2023/09/11 01:31:39;;;;;;;9.80;8.90;;;;;;;;;;5028791;28;20878;-56
2023/09/11 01:34:07;;;;;;;10.80;9.70;;;;;;;;;;5030069;28;20580;-56
2023/09/11 01:36:34;;;;;;;9.37;8.47;;;;;;;;;;5030252;28;20477;-56
2023/09/11 01:39:02;;;;;;;11.23;10.23;;;;;;;;;;5031569;28;20454;-55
2023/09/11 01:41:33;;;;;;;10.17;9.10;;;;;;;;;;5031764;28;20523;-55
2023/09/11 01:44:02;;;;;;;9.67;8.77;;;;;;;;;;5031181;28;20442;-55
2023/09/11 01:46:30;;;;;;;11.40;9.60;;;;;;;;;;5030923;28;20544;-55
2023/09/11 01:48:58;;;;;;;11.30;10.20;;;;;;;;;;5031447;28;20482;-55
2023/09/11 01:51:26;;;;;;;10.80;9.67;;;;;;;;;;5031623;28;20449;-56
2023/09/11 01:53:53;;;;;;;10.73;9.63;;;;;;;;;;5030432;28;20473;-56
2023/09/11 01:56:21;;;;;;;10.37;9.43;;;;;;;;;;5030944;28;20498;-56
2023/09/11 01:58:48;;;;;;;11.13;9.87;;;;;;;;;;5031162;28;20482;-55
2023/09/11 02:01:15;;;;;;;11.20;9.33;;;;;;;;;;5030317;28;20975;-56
2023/09/11 02:03:44;;;;;;;10.50;9.50;;;;;;;;;;5031041;28;20791;-56
2023/09/11 02:06:11;;;;;;;10.70;9.03;;;;;;;;;;5030301;28;20461;-55
2023/09/11 02:08:38;;;;;;;10.50;9.50;;;;;;;;;;5030725;28;20477;-55
2023/09/11 02:11:07;;;;;;;10.13;9.23;;;;;;;;;;5030688;28;20500;-55
2023/09/11 02:13:35;;;;;;;10.63;9.53;;;;;;;;;;5030558;28;20536;-56
2023/09/11 02:16:02;;;;;;;11.27;10.17;;;;;;;;;;5029875;28;20482;-55
2023/09/11 02:18:29;;;;;;;10.47;9.40;;;;;;;;;;5030694;28;20466;-55
2023/09/11 02:20:58;;;;;;;10.17;9.07;;;;;;;;;;5030832;28;20544;-56
2023/09/11 02:23:25;;;;;;;10.93;9.70;;;;;;;;;;5029962;28;20485;-56
2023/09/11 02:25:53;;;;;;;11.00;10.00;;;;;;;;;;5029990;28;20532;-56
2023/09/11 02:28:20;;;;;;;10.50;9.50;;;;;;;;;;5030357;28;20478;-56
2023/09/11 02:30:47;;;;;;;11.93;9.90;;;;;;;;;;5030542;28;20545;-56
2023/09/11 02:33:14;;;;;;;10.70;9.70;;;;;;;;;;5029563;28;20473;-56
2023/09/11 02:35:42;;;;;;;10.17;9.17;;;;;;;;;;5030273;28;20509;-55
2023/09/11 02:38:10;;;;;;;11.00;9.47;;;;;;;;;;5029878;28;20565;-55
2023/09/11 02:40:38;;;;;;;9.73;8.87;;;;;;;;;;5030158;28;20446;-55
2023/09/11 02:43:05;;;;;;;10.90;9.20;;;;;;;;;;5028424;28;20874;-56
2023/09/11 02:45:32;;;;;;;10.30;9.30;;;;;;;;;;5029761;28;20859;-56
2023/09/11 02:47:59;;;;;;;10.67;9.67;;;;;;;;;;5029882;28;21138;-56
2023/09/11 02:50:26;;;;;;;9.77;8.90;;;;;;;;;;5030106;28;20446;-56
2023/09/11 02:52:53;;;;;;;9.70;8.73;;;;;;;;;;5028969;28;20982;-57
2023/09/11 02:55:22;;;;;;;11.60;10.50;;;;;;;;;;5030301;28;20514;-56
2023/09/11 02:57:49;;;;;;;10.30;9.30;;;;;;;;;;5029447;28;20556;-55
2023/09/11 03:00:16;;;;;;;10.40;9.43;;;;;;;;;;5030039;28;20613;-55
2023/09/11 03:02:45;;;;;;;11.97;10.77;;;;;;;;;;5029220;28;20505;-55
2023/09/11 03:05:12;;;;;;;10.80;9.67;;;;;;;;;;5030253;28;20438;-56
2023/09/11 03:07:40;;;;;;;10.17;9.27;;;;;;;;;;5075061;23;20490;-57
2023/09/11 03:10:08;;;;;;;9.20;8.30;;;;;;;;;;5030162;28;20524;-56
2023/09/11 03:12:36;;;;;;;10.07;9.07;;;;;;;;;;5029662;28;20446;-57
2023/09/11 03:15:04;;;;;;;10.60;9.57;;;;;;;;;;5029180;28;21007;-59
2023/09/11 03:17:31;;;;;;;9.83;8.93;;;;;;;;;;5028134;28;20505;-56
2023/09/11 03:19:58;;;;;;;10.77;9.60;;;;;;;;;;5028534;28;20957;-58
2023/09/11 03:22:26;;;;;;;10.63;9.50;;;;;;;;;;5030928;28;20470;-56
2023/09/11 03:24:53;;;;;;;10.47;9.50;;;;;;;;;;5031490;28;20520;-55
2023/09/11 03:27:20;;;;;;;10.37;8.83;;;;;;;;;;5031932;28;20557;-55
2023/09/11 03:29:52;;;;;;;9.80;8.90;;;;;;;;;;5032160;28;20469;-55
2023/09/11 03:32:19;;;;;;;10.80;9.73;;;;;;;;;;5033728;28;20461;-57
2023/09/11 03:34:46;;;;;;;10.63;9.57;;;;;;;;;;5033595;28;20525;-55
2023/09/11 03:37:13;;;;;;;10.70;9.67;;;;;;;;;;5032835;28;20494;-56
2023/09/11 03:39:40;;;;;;;9.83;8.93;;;;;;;;;;5033122;28;20539;-56
2023/09/11 03:42:08;;;;;;;10.20;9.30;;;;;;;;;;5033432;28;20470;-58
2023/09/11 03:44:35;;;;;;;10.27;9.27;;;;;;;;;;5033483;28;20454;-58
2023/09/11 03:47:04;;;;;;;10.13;9.23;;;;;;;;;;5033164;28;20493;-58
2023/09/11 03:49:31;;;;;;;10.80;9.53;;;;;;;;;;5033034;28;20500;-57
2023/09/11 03:51:58;;;;;;;10.90;9.80;;;;;;;;;;5033305;28;20482;-57
2023/09/11 03:54:26;;;;;;;10.20;9.20;;;;;;;;;;5033024;28;20457;-59
2023/09/11 03:56:53;;;;;;;10.87;9.87;;;;;;;;;;5032182;28;20494;-57
2023/09/11 03:59:20;;;;;;;9.57;8.67;;;;;;;;;;5033688;28;20446;-58
2023/09/11 04:01:47;;;;;;;9.47;8.50;;;;;;;;;;5033201;28;20475;-58
2023/09/11 04:04:16;;;;;;;9.40;8.40;;;;;;;;;;5033059;28;20473;-58
2023/09/11 04:06:45;;;;;;;9.57;8.57;;;;;;;;;;5032142;28;20502;-57
2023/09/11 04:09:12;;;;;;;10.03;9.13;;;;;;;;;;5032987;28;20446;-58
2023/09/11 04:11:40;;;;;;;9.17;8.30;;;;;;;;;;5033411;28;20480;-57
2023/09/11 04:14:07;;;;;;;9.73;8.73;;;;;;;;;;5033039;28;20462;-56
2023/09/11 04:16:34;;;;;;;10.67;9.57;;;;;;;;;;5031975;28;20978;-56
2023/09/11 04:19:01;;;;;;;11.60;8.70;;;;;;;;;;5032606;28;20481;-57
2023/09/11 04:21:30;;;;;;;9.90;8.90;;;;;;;;;;5032759;28;20524;-57
2023/09/11 04:23:57;;;;;;;9.80;8.90;;;;;;;;;;5032229;28;20446;-56
2023/09/11 04:26:24;;;;;;;9.40;8.40;;;;;;;;;;5032442;28;20470;-56
2023/09/11 04:28:54;;;;;;;10.43;9.40;;;;;;;;;;5032643;28;20720;-57
2023/09/11 04:31:22;;;;;;;10.77;9.77;;;;;;;;;;5032322;28;20477;-57
2023/09/11 04:33:49;;;;;;;10.40;9.40;;;;;;;;;;5032068;28;20870;-56
2023/09/11 04:36:16;;;;;;;9.90;8.90;;;;;;;;;;5032292;28;20518;-56
2023/09/11 04:38:45;;;;;;;10.03;8.93;;;;;;;;;;5031825;28;20505;-56
2023/09/11 04:41:12;;;;;;;9.43;8.50;;;;;;;;;;5027053;28;20446;-58
2023/09/11 04:43:39;;;;;;;10.67;9.57;;;;;;;;;;5032095;28;20539;-56
2023/09/11 04:46:06;;;;;;;9.70;8.80;;;;;;;;;;5031656;28;20446;-55
2023/09/11 04:48:34;;;;;;;10.10;9.10;;;;;;;;;;5032111;28;20478;-57
2023/09/11 04:51:01;;;;;;;10.60;9.60;;;;;;;;;;5031654;28;20853;-56
2023/09/11 04:53:29;;;;;;;12.00;10.07;;;;;;;;;;5032261;28;20442;-56
2023/09/11 04:55:57;;;;;;;11.47;8.30;;;;;;;;;;5031572;28;20501;-55
2023/09/11 04:58:25;;;;;;;10.00;9.10;;;;;;;;;;5031948;28;20537;-58
2023/09/11 05:00:54;;;;;;;9.93;8.43;;;;;;;;;;5031607;28;20493;-57
2023/09/11 05:03:21;;;;;;;9.60;8.70;;;;;;;;;;5030715;28;21102;-58
2023/09/11 05:05:49;;;;;;;11.20;9.63;;;;;;;;;;5031239;28;20512;-56
2023/09/11 05:08:16;;;;;;;9.00;8.20;;;;;;;;;;5030686;28;21003;-57
2023/09/11 05:10:44;;;;;;;9.80;8.83;;;;;;;;;;5031257;28;20470;-58
2023/09/11 05:13:13;;;;;;;8.90;8.00;;;;;;;;;;5031615;28;20485;-56
2023/09/11 05:15:40;;;;;;;10.33;9.33;;;;;;;;;;5031074;28;20517;-56
2023/09/11 05:18:07;;;;;;;10.20;9.20;;;;;;;;;;5030651;28;20502;-56
2023/09/11 05:20:34;;;;;;;9.50;8.60;;;;;;;;;;5031179;28;20470;-56
2023/09/11 05:23:02;;;;;;;11.23;8.93;;;;;;;;;;5031293;28;20478;-58
2023/09/11 05:25:29;;;;;;;9.30;8.40;;;;;;;;;;5031885;28;20480;-56
2023/09/11 05:27:56;;;;;;;9.60;8.60;;;;;;;;;;5030723;28;20490;-56
2023/09/11 05:30:25;;;;;;;11.20;8.67;;;;;;;;;;5031239;28;20470;-56
2023/09/11 05:32:52;;;;;;;10.30;8.83;;;;;;;;;;5030332;28;20496;-57
2023/09/11 05:35:19;;;;;;;11.30;10.07;;;;;;;;;;5031343;28;20509;-57
2023/09/11 05:37:47;;;;;;;9.90;8.90;;;;;;;;;;5031179;28;20502;-55
2023/09/11 05:40:14;;;;;;;10.27;8.73;;;;;;;;;;5031505;28;20493;-55
2023/09/11 05:42:41;;;;;;;10.10;9.20;;;;;;;;;;5030813;28;20948;-55
2023/09/11 05:45:09;;;;;;;8.57;7.80;;;;;;;;;;5030525;28;20466;-55
2023/09/11 05:47:38;;;;;;;10.00;8.30;;;;;;;;;;5031178;28;20458;-57
2023/09/11 05:50:07;;;;;;;9.00;8.10;;;;;;;;;;5030887;28;20443;-57
2023/09/11 05:52:34;;;;;;;10.13;9.00;;;;;;;;;;5031097;28;20438;-56
2023/09/11 05:55:01;;;;;;;9.70;8.80;;;;;;;;;;5030827;28;20545;-56
2023/09/11 05:57:29;;;;;;;10.13;9.13;;;;;;;;;;5031109;28;20883;-56
2023/09/11 05:59:56;;;;;;;9.87;8.97;;;;;;;;;;5031114;28;20990;-57
2023/09/11 06:02:24;;;;;;;10.50;8.57;;;;;;;;;;5031071;28;20488;-57
2023/09/11 06:04:52;;;;;;;9.00;8.20;;;;;;;;;;5030690;28;20951;-58
2023/09/11 06:07:19;;;;;;;8.70;7.80;;;;;;;;;;5030431;28;20579;-57
2023/09/11 06:09:47;;;;;;;8.73;7.83;;;;;;;;;;5030789;28;20486;-56
2023/09/11 06:12:14;;;;;;;10.30;9.20;;;;;;;;;;5030872;28;20485;-58
2023/09/11 06:14:41;;;;;;;10.57;9.10;;;;;;;;;;5031033;28;20477;-56
2023/09/11 06:17:08;;;;;;;10.33;8.53;;;;;;;;;;5030354;28;20513;-55
2023/09/11 06:19:36;;;;;;;9.40;8.40;;;;;;;;;;5030404;28;20962;-57
2023/09/11 06:22:04;;;;;;;10.10;9.20;;;;;;;;;;5030165;28;20534;-58
2023/09/11 06:24:31;;;;;;;9.23;8.30;;;;;;;;;;5030624;28;20479;-57
2023/09/11 06:27:07;;;;;;;9.90;9.00;;;;;;;;;;5030338;28;20873;-56
2023/09/11 06:29:34;;;;;;;10.60;9.27;;;;;;;;;;5030257;28;20474;-58
2023/09/11 06:32:02;;;;;;;13.00;9.03;;;;;;;;;;5030619;28;20702;-56
2023/09/11 06:34:30;;;;;;;8.53;7.70;;;;;;;;;;5030559;28;21002;-56
2023/09/11 06:36:57;;;;;;;9.37;8.47;;;;;;;;;;5030156;28;20510;-56
2023/09/11 06:39:26;;;;;;;10.30;8.80;;;;;;;;;;5030574;28;20944;-57
2023/09/11 06:41:53;;;;;;;9.87;8.87;;;;;;;;;;5030804;28;20520;-57
2023/09/11 06:44:20;;;;;;;10.33;9.03;;;;;;;;;;5030325;28;20466;-55
2023/09/11 06:46:47;;;;;;;12.30;9.20;;;;;;;;;;5029616;28;20486;-57
2023/09/11 06:49:15;;;;;;;8.63;7.83;;;;;;;;;;5029649;28;20474;-56
2023/09/11 06:51:42;;;;;;;10.00;9.00;;;;;;;;;;5030252;28;20492;-56
2023/09/11 06:54:12;;;;;;;8.60;7.70;;;;;;;;;;5030230;28;20821;-55
2023/09/11 06:56:41;;;;;;;8.83;8.03;;;;;;;;;;5032096;28;20481;-55
2023/09/11 06:59:08;;;;;;;9.03;8.10;;;;;;;;;;5033947;28;20478;-55
2023/09/11 07:01:39;;;;;;;11.33;9.20;;;;;;;;;;5033769;28;20478;-56
2023/09/11 07:04:08;;;;;;;11.23;9.97;;;;;;;;;;5034275;28;20454;-56
2023/09/11 07:06:35;;;;;;;11.50;10.40;;;;;;;;;;5033193;28;20461;-55
2023/09/11 07:09:04;;;;;;;11.23;10.13;;;;;;;;;;5034205;28;20470;-57
2023/09/11 07:11:31;;;;;;;10.23;8.60;;;;;;;;;;5032293;28;20497;-56
2023/09/11 07:14:00;;;;;;;9.93;8.70;;;;;;;;;;5034628;28;20450;-55
2023/09/11 07:16:27;;;;;;;10.20;9.20;;;;;;;;;;5033693;28;20517;-57
2023/09/11 07:18:54;;;;;;;10.50;9.40;;;;;;;;;;5033982;28;20474;-56
2023/09/11 07:21:21;;;;;;;10.40;8.40;;;;;;;;;;5034310;28;20485;-56
2023/09/11 07:23:49;;;;;;;9.70;8.67;;;;;;;;;;5034120;28;20474;-56
2023/09/11 07:26:16;;;;;;;9.20;8.10;;;;;;;;;;5033692;28;20465;-57
2023/09/11 07:28:56;;;;;;;11.03;8.67;;;;;;;;;;5034179;28;20894;-57
2023/09/11 07:31:24;;;;;;;11.57;9.90;;;;;;;;;;5034110;28;20478;-56
2023/09/11 07:33:52;;;;;;;10.80;8.53;;;;;;;;;;5033855;28;21001;-57
2023/09/11 07:36:20;;;;;;;10.53;8.60;;;;;;;;;;5033341;28;20478;-55
2023/09/11 07:38:47;;;;;;;8.80;8.00;;;;;;;;;;5033472;28;20485;-56
2023/09/11 07:41:15;;;;;;;9.60;8.70;;;;;;;;;;5034094;28;20466;-55
2023/09/11 07:43:44;;;;;;;10.30;9.00;;;;;;;;;;5033720;28;20540;-56
2023/09/11 07:46:11;;;;;;;13.87;9.10;;;;;;;;;;5033214;28;20887;-58
2023/09/11 07:48:39;;;;;;;9.77;8.77;;;;;;;;;;5031724;28;20903;-58
2023/09/11 07:51:07;;;;;;;12.00;8.70;;;;;;;;;;5029488;28;20506;-56
2023/09/11 07:53:34;;;;;;;10.73;9.73;;;;;;;;;;5038044;28;20480;-58
2023/09/11 07:56:06;;;;;;;13.67;9.47;;;;;;;;;;5033118;28;20572;-58
2023/09/11 07:58:33;;;;;;;9.73;8.80;;;;;;;;;;5039297;28;20476;-56
2023/09/11 08:01:00;;;;;;;11.47;10.40;;;;;;;;;;5032295;28;20445;-57
2023/09/11 08:03:27;;;;;;;11.80;9.33;;;;;;;;;;5031877;28;20477;-55
2023/09/11 08:05:56;;;;;;;9.50;8.57;;;;;;;;;;5032506;28;20462;-57
2023/09/11 08:08:23;;;;;;;10.67;9.67;;;;;;;;;;5032142;28;20498;-56
2023/09/11 08:10:51;;;;;;;9.90;8.97;;;;;;;;;;5032995;28;20674;-58
2023/09/11 08:13:18;;;;;;;9.10;8.30;;;;;;;;;;5033038;28;20532;-56
2023/09/11 08:15:45;;;;;;;10.40;9.40;;;;;;;;;;5031224;28;20994;-58
2023/09/11 08:18:12;;;;;;;9.60;8.60;;;;;;;;;;5032245;28;20497;-56
2023/09/11 08:20:42;;;;;;;14.30;10.10;;;;;;;;;;5032895;28;20474;-58
2023/09/11 08:23:11;;;;;;;9.40;8.50;;;;;;;;;;5036048;28;20997;-56
2023/09/11 08:25:38;;;;;;;9.60;8.60;;;;;;;;;;5034595;28;20920;-55
2023/09/11 08:28:05;;;;;;;9.20;8.30;;;;;;;;;;5031037;28;20510;-57
2023/09/11 08:30:33;;;;;;;10.70;9.60;;;;;;;;;;5032034;28;20532;-57
2023/09/11 08:33:02;;;;;;;9.60;8.60;;;;;;;;;;5032464;28;20512;-56
2023/09/11 08:35:30;;;;;;;9.60;8.60;;;;;;;;;;5032794;28;20453;-56
2023/09/11 08:37:57;;;;;;;9.83;8.87;;;;;;;;;;5033439;28;20517;-56
2023/09/11 08:40:29;;;;;;;11.70;10.50;;;;;;;;;;5032017;28;20932;-56
2023/09/11 08:42:56;;;;;;;10.37;9.37;;;;;;;;;;5041307;28;20859;-58
2023/09/11 08:45:25;;;;;;;10.53;9.50;;;;;;;;;;5037871;28;20473;-56
2023/09/11 08:47:52;;;;;;;10.00;8.97;;;;;;;;;;5037073;28;20561;-58
2023/09/11 08:50:22;;;;;;;11.07;9.97;;;;;;;;;;5039180;28;20512;-58
2023/09/11 08:52:50;;;;;;;11.40;10.23;;;;;;;;;;5031240;28;20477;-60
2023/09/11 08:55:19;;;;;;;9.97;8.97;;;;;;;;;;5031569;28;20469;-56
2023/09/11 08:57:48;;;;;;;11.40;9.63;;;;;;;;;;5029815;28;20486;-57
2023/09/11 09:00:16;;;;;;;9.30;8.47;;;;;;;;;;5030257;28;20478;-59
2023/09/11 09:02:44;;;;;;;11.47;9.63;;;;;;;;;;5029859;28;21006;-58
2023/09/11 09:05:12;;;;;;;11.47;9.70;;;;;;;;;;5030543;28;20632;-57
2023/09/11 09:07:40;;;;;;;9.37;8.47;;;;;;;;;;5063974;22;20485;-86
2023/09/11 09:10:08;;;;;;;11.67;9.70;;;;;;;;;;5055909;28;20507;-86
2023/09/11 09:12:35;;;;;;;11.27;10.17;;;;;;;;;;5053403;28;20503;-87
2023/09/11 09:15:06;;;;;;;10.07;9.07;;;;;;;;;;5054505;28;20951;-87
2023/09/11 09:17:33;;;;;;;9.70;8.37;;;;;;;;;;5053118;28;20948;-87
2023/09/11 09:20:00;;;;;;;9.83;8.80;;;;;;;;;;5046815;28;20441;-87
2023/09/11 09:22:28;;;;;;;11.10;10.00;;;;;;;;;;5054730;22;20911;-57
2023/09/11 09:24:55;;;;;;;10.20;9.10;;;;;;;;;;5031649;28;20481;-57
2023/09/11 09:27:24;;;;;;;11.83;9.50;;;;;;;;;;5031336;28;20471;-57
2023/09/11 09:29:52;;;;;;;9.00;8.10;;;;;;;;;;5026618;28;20446;-57
2023/09/11 09:32:20;;;;;;;11.63;9.30;;;;;;;;;;5031415;28;20484;-57
2023/09/11 09:34:50;;;;;;;10.63;9.50;;;;;;;;;;5031289;28;20438;-57
2023/09/11 09:37:18;;;;;;;11.10;10.00;;;;;;;;;;5030674;28;20492;-58
2023/09/11 09:39:46;;;;;;;10.03;9.13;;;;;;;;;;5030567;28;20742;-57
2023/09/11 09:42:14;;;;;;;12.17;10.00;;;;;;;;;;5031132;28;20799;-57
2023/09/11 09:44:43;;;;;;;10.83;9.50;;;;;;;;;;5030940;28;20920;-57
2023/09/11 09:47:12;;;;;;;9.17;8.27;;;;;;;;;;5030759;28;20469;-56
2023/09/11 09:49:48;;;;;;;12.70;9.43;;;;;;;;;;5029442;28;20535;-57
2023/09/11 09:52:17;;;;;;;10.03;9.07;;;;;;;;;;5031173;28;20450;-57
2023/09/11 09:54:46;;;;;;;10.20;9.20;;;;;;;;;;5030848;28;20498;-57
2023/09/11 09:57:14;;;;;;;9.80;8.90;;;;;;;;;;5030254;28;20855;-58
2023/09/11 09:59:41;;;;;;;10.93;10.00;;;;;;;;;;5029710;28;20474;-58
2023/09/11 10:02:10;;;;;;;11.00;9.90;;;;;;;;;;5030724;28;20445;-57
2023/09/11 10:04:37;;;;;;;11.07;10.10;;;;;;;;;;5029426;28;20527;-58
2023/09/11 10:07:06;;;;;;;10.23;9.13;;;;;;;;;;5030303;28;20490;-58
2023/09/11 10:09:34;;;;;;;10.60;9.70;;;;;;;;;;5029997;28;20525;-58
2023/09/11 10:12:05;;;;;;;12.00;10.23;;;;;;;;;;5030187;28;20466;-58
2023/09/11 10:14:33;;;;;;;11.80;10.80;;;;;;;;;;5028025;28;20462;-58
2023/09/11 10:17:00;;;;;;;10.67;9.67;;;;;;;;;;5029536;28;20547;-58
2023/09/11 10:19:30;;;;;;;10.30;9.40;;;;;;;;;;5028356;28;20438;-58
2023/09/11 10:21:57;;;;;;;12.30;11.10;;;;;;;;;;5029843;28;20453;-59
2023/09/11 10:24:26;;;;;;;10.83;9.80;;;;;;;;;;5030366;28;20442;-56
2023/09/11 10:26:57;;;;;;;10.27;9.30;;;;;;;;;;5029017;28;20854;-55
2023/09/11 10:29:30;;;;;;;10.90;9.90;;;;;;;;;;5030089;28;20521;-56
2023/09/11 10:31:59;;;;;;;12.10;10.90;;;;;;;;;;5028961;28;20435;-56
2023/09/11 10:34:27;;;;;;;10.50;9.50;;;;;;;;;;5030222;28;20462;-56
2023/09/11 10:36:57;;;;;;;11.00;9.90;;;;;;;;;;5028961;28;20513;-56
2023/09/11 10:39:24;;;;;;;10.77;9.77;;;;;;;;;;5027685;28;21002;-56
2023/09/11 10:41:53;;;;;;;10.73;9.73;;;;;;;;;;5030030;28;20930;-56
2023/09/11 10:44:20;;;;;;;12.43;11.03;;;;;;;;;;5029004;28;21083;-56
2023/09/11 10:46:52;;;;;;;10.90;9.90;;;;;;;;;;5028176;28;20477;-56
2023/09/11 10:49:19;;;;;;;10.60;9.60;;;;;;;;;;5029945;28;20521;-56
2023/09/11 10:51:47;;;;;;;12.43;11.17;;;;;;;;;;5029507;28;20470;-57
2023/09/11 10:54:15;;;;;;;11.33;10.23;;;;;;;;;;5029941;28;20445;-56
2023/09/11 10:56:43;;;;;;;11.73;10.33;;;;;;;;;;5029444;28;20542;-56
2023/09/11 10:59:12;;;;;;;11.93;9.40;;;;;;;;;;5029280;28;20980;-57
2023/09/11 11:01:39;;;;;;;12.17;11.07;;;;;;;;;;5030533;28;20439;-57
2023/09/11 11:04:08;;;;;;;10.80;9.80;;;;;;;;;;5029953;28;20941;-56
2023/09/11 11:06:35;;;;;;;11.47;10.30;;;;;;;;;;5029952;28;20450;-56
2023/09/11 11:09:02;;;;;;;11.60;10.60;;;;;;;;;;5029153;28;20458;-56
2023/09/11 11:11:33;;;;;;;10.80;9.80;;;;;;;;;;5029874;28;20867;-56
2023/09/11 11:14:14;;;;;;;10.03;9.10;;;;;;;;;;5028183;28;20477;-56
2023/09/11 11:16:54;;;;;;;10.73;9.60;;;;;;;;;;5026254;28;20794;-57
2023/09/11 11:19:28;;;;;;;11.43;10.33;;;;;;;;;;5024537;28;20469;-56
2023/09/11 11:21:56;;;;;;;11.87;10.07;;;;;;;;;;5028578;28;20477;-56
2023/09/11 11:24:24;;;;;;;11.53;9.60;;;;;;;;;;5029511;28;20438;-56
2023/09/11 11:26:51;;;;;;;12.10;11.03;;;;;;;;;;5029229;28;20918;-56
2023/09/11 11:29:20;;;;;;;11.00;9.80;;;;;;;;;;5029881;28;20466;-56
2023/09/11 11:31:48;;;;;;;11.50;10.40;;;;;;;;;;5028631;28;20574;-56
2023/09/11 11:34:16;;;;;;;10.47;9.47;;;;;;;;;;5029572;28;20508;-57
2023/09/11 11:36:43;;;;;;;11.30;10.20;;;;;;;;;;5028754;28;20458;-56
2023/09/11 11:39:10;;;;;;;11.20;10.20;;;;;;;;;;5029548;28;20446;-56
2023/09/11 11:41:38;;;;;;;13.77;12.57;;;;;;;;;;5029207;28;20478;-57
2023/09/11 11:44:06;;;;;;;11.27;10.17;;;;;;;;;;5033109;28;20509;-57
2023/09/11 11:46:34;;;;;;;12.80;11.77;;;;;;;;;;5032341;28;20532;-58
2023/09/11 11:49:02;;;;;;;11.07;9.97;;;;;;;;;;5031741;28;20485;-57
2023/09/11 11:51:30;;;;;;;12.47;11.07;;;;;;;;;;5032122;28;20727;-58
2023/09/11 11:53:58;;;;;;;11.80;10.80;;;;;;;;;;5031495;28;20531;-56
2023/09/11 11:56:26;;;;;;;12.73;11.60;;;;;;;;;;5031675;28;20469;-57
2023/09/11 11:58:55;;;;;;;11.97;10.97;;;;;;;;;;5029761;28;20482;-57
2023/09/11 12:01:22;;;;;;;12.87;11.67;;;;;;;;;;5032777;28;20537;-58
2023/09/11 12:03:52;;;;;;;12.30;11.30;;;;;;;;;;5032169;28;20496;-57
2023/09/11 12:06:20;;;;;;;11.70;10.70;;;;;;;;;;5032024;28;20500;-57
2023/09/11 12:08:48;;;;;;;11.90;10.90;;;;;;;;;;5030497;28;20472;-58
2023/09/11 12:11:15;;;;;;;11.70;10.77;;;;;;;;;;5030040;28;20929;-56
2023/09/11 12:13:43;;;;;;;12.50;11.40;;;;;;;;;;5032588;28;20485;-58
2023/09/11 12:16:11;;;;;;;12.80;11.60;;;;;;;;;;5032690;28;20844;-59
2023/09/11 12:18:42;;;;;;;12.30;11.10;;;;;;;;;;5032696;28;20491;-57
2023/09/11 12:21:10;;;;;;;12.43;11.13;;;;;;;;;;5032069;28;20484;-57
2023/09/11 12:23:37;;;;;;;12.27;11.10;;;;;;;;;;5031531;28;20480;-58
2023/09/11 12:26:05;;;;;;;11.63;10.63;;;;;;;;;;5025298;28;20475;-58
2023/09/11 12:28:34;;;;;;;14.53;13.33;;;;;;;;;;5030193;28;20450;-57
2023/09/11 12:31:01;;;;;;;13.40;12.30;;;;;;;;;;5033133;28;20453;-58
2023/09/11 12:33:32;;;;;;;11.63;10.63;;;;;;;;;;5032771;28;20485;-58
2023/09/11 12:36:00;;;;;;;12.80;11.63;;;;;;;;;;5027822;28;20442;-57
2023/09/11 12:38:28;;;;;;;11.93;10.83;;;;;;;;;;5032322;28;20591;-58
2023/09/11 12:40:56;;;;;;;11.37;10.47;;;;;;;;;;5028981;28;20498;-59
2023/09/11 12:43:23;;;;;;;11.43;10.43;;;;;;;;;;5030973;28;20524;-59
2023/09/11 12:45:51;;;;;;;15.17;13.57;;;;;;;;;;5032598;28;20500;-57
2023/09/11 12:48:18;;;;;;;14.93;13.57;;;;;;;;;;5032452;28;20541;-57
2023/09/11 12:50:45;;;;;;;14.10;12.77;;;;;;;;;;5032591;28;20440;-58
2023/09/11 12:53:13;;;;;;;14.03;12.80;;;;;;;;;;5032831;28;20474;-57
2023/09/11 12:55:41;;;;;;;14.20;12.80;;;;;;;;;;5032466;28;20794;-57
2023/09/11 12:58:10;;;;;;;13.70;12.37;;;;;;;;;;5032276;28;20473;-57
2023/09/11 13:00:42;;;;;;;13.57;12.13;;;;;;;;;;5032681;28;20448;-59
2023/09/11 13:03:10;;;;;;;11.87;10.87;;;;;;;;;;5032486;28;20457;-59
2023/09/11 13:05:37;;;;;;;12.33;11.27;;;;;;;;;;5032629;28;20524;-57
2023/09/11 13:08:05;;;;;;;12.47;11.30;;;;;;;;;;5028070;28;20862;-58
2023/09/11 13:10:33;;;;;;;11.43;10.47;;;;;;;;;;5032310;28;20835;-58
2023/09/11 13:13:01;;;;;;;12.03;10.80;;;;;;;;;;5030840;28;20936;-57
2023/09/11 13:15:29;;;;;;;11.77;10.70;;;;;;;;;;5031048;28;20469;-57
2023/09/11 13:17:56;;;;;;;11.57;10.47;;;;;;;;;;5030585;28;20478;-57
2023/09/11 13:20:23;;;;;;;10.90;10.00;;;;;;;;;;5025163;28;20474;-58
2023/09/11 13:22:51;;;;;;;11.30;10.30;;;;;;;;;;5031685;28;21003;-57
2023/09/11 13:25:18;;;;;;;11.77;10.77;;;;;;;;;;5032562;28;20488;-59
2023/09/11 13:27:45;;;;;;;12.23;11.17;;;;;;;;;;5031557;28;20508;-57
2023/09/11 13:30:14;;;;;;;12.40;11.30;;;;;;;;;;5030433;28;20470;-57
2023/09/11 13:32:41;;;;;;;13.97;12.67;;;;;;;;;;5025599;28;20864;-58
2023/09/11 13:35:09;;;;;;;12.17;11.07;;;;;;;;;;5031217;28;20534;-58
2023/09/11 13:37:37;;;;;;;13.03;11.93;;;;;;;;;;5027747;28;20572;-57
2023/09/11 13:40:06;;;;;;;12.63;11.33;;;;;;;;;;5029737;28;20457;-58
2023/09/11 13:42:33;;;;;;;12.80;11.50;;;;;;;;;;5030524;28;20443;-57
2023/09/11 13:45:00;;;;;;;11.60;10.50;;;;;;;;;;5029350;28;20790;-57
2023/09/11 13:47:29;;;;;;;14.97;11.17;;;;;;;;;;5030653;28;20482;-58
2023/09/11 13:49:56;;;;;;;11.63;10.63;;;;;;;;;;5029269;28;20442;-57
2023/09/11 13:52:23;;;;;;;10.83;9.90;;;;;;;;;;5028889;28;21137;-57
2023/09/11 13:54:50;;;;;;;10.73;9.63;;;;;;;;;;5030619;28;20997;-57
2023/09/11 13:57:18;;;;;;;11.53;10.47;;;;;;;;;;5030927;28;20517;-59
2023/09/11 13:59:45;;;;;;;10.10;9.20;;;;;;;;;;5030569;28;20518;-58
2023/09/11 14:02:12;;;;;;;9.80;8.90;;;;;;;;;;5030667;28;20474;-57
2023/09/11 14:04:41;;;;;;;10.30;9.40;;;;;;;;;;5030368;28;20961;-58
2023/09/11 14:07:08;;;;;;;10.83;9.77;;;;;;;;;;5030356;28;20521;-58
2023/09/11 14:09:35;;;;;;;10.77;8.73;;;;;;;;;;5030099;28;20442;-57
2023/09/11 14:12:02;;;;;;;10.43;9.30;;;;;;;;;;5030943;28;20543;-57
2023/09/11 14:14:31;;;;;;;10.07;9.10;;;;;;;;;;5030349;28;20516;-57
2023/09/11 14:16:59;;;;;;;9.40;8.60;;;;;;;;;;5029635;28;20446;-57
2023/09/11 14:19:26;;;;;;;10.10;9.10;;;;;;;;;;5030436;28;20482;-57
2023/09/11 14:21:55;;;;;;;9.73;8.83;;;;;;;;;;5027597;28;20496;-57
2023/09/11 14:24:22;;;;;;;9.47;8.67;;;;;;;;;;5026214;28;20494;-57
2023/09/11 14:26:49;;;;;;;9.50;8.70;;;;;;;;;;5030151;28;21011;-57
2023/09/11 14:29:16;;;;;;;9.63;8.60;;;;;;;;;;5030549;28;20473;-58
2023/09/11 14:31:44;;;;;;;9.73;8.83;;;;;;;;;;5026453;28;20493;-57
2023/09/11 14:34:11;;;;;;;9.93;9.13;;;;;;;;;;5027378;28;20466;-58
2023/09/11 14:36:38;;;;;;;10.63;9.50;;;;;;;;;;5029246;28;20920;-58